createdAt,value
2022-09-17T00:01:35.918Z,73.97
2022-09-17T00:04:05.137Z,74.06
2022-09-17T00:06:35.872Z,74.17
2022-09-17T00:09:06.723Z,74.30
2022-09-17T00:11:38.187Z,74.47
2022-09-17T00:14:09.503Z,74.38
2022-09-17T00:16:42.920Z,74.34
2022-09-17T00:19:16.091Z,74.19
2022-09-17T00:21:44.367Z,74.07
2022-09-17T00:24:14.446Z,73.93
2022-09-17T00:26:44.096Z,73.77
2022-09-17T00:29:12.731Z,73.80
2022-09-17T00:31:41.841Z,74.01
2022-09-17T00:34:12.063Z,74.11
2022-09-17T00:36:40.577Z,73.98
2022-09-17T00:39:11.250Z,73.89
2022-09-17T00:41:39.999Z,73.92
2022-09-17T00:44:43.250Z,74.06
2022-09-17T00:47:21.093Z,74.34
2022-09-17T00:50:01.786Z,74.49
2022-09-17T00:52:44.468Z,74.69
2022-09-17T00:55:24.423Z,74.96
2022-09-17T00:57:56.634Z,75.06
2022-09-17T01:00:26.830Z,75.25
2022-09-17T01:02:55.293Z,75.22
2022-09-17T01:05:42.821Z,75.31
2022-09-17T01:08:52.814Z,75.35
2022-09-17T01:11:35.426Z,75.41
2022-09-17T01:14:14.230Z,75.44
2022-09-17T01:17:04.924Z,75.73
2022-09-17T01:19:45.548Z,75.68
2022-09-17T01:22:23.068Z,75.77
2022-09-17T01:25:36.986Z,75.85
2022-09-17T01:28:33.778Z,75.94
2022-09-17T01:31:07.816Z,76.00
2022-09-17T01:33:43.702Z,76.06
2022-09-17T01:36:15.141Z,76.14
2022-09-17T01:39:32.959Z,76.15
2022-09-17T01:42:13.966Z,76.12
2022-09-17T01:45:04.843Z,76.06
2022-09-17T01:47:43.595Z,75.92
2022-09-17T01:50:18.428Z,76.02
2022-09-17T01:52:50.326Z,75.68
2022-09-17T01:55:22.925Z,75.41
2022-09-17T01:57:56.584Z,75.16
2022-09-17T02:00:25.373Z,75.19
2022-09-17T02:03:09.145Z,75.01
2022-09-17T02:05:43.815Z,74.95
2022-09-17T02:08:19.693Z,74.98
2022-09-17T02:11:15.526Z,74.93
2022-09-17T02:13:51.404Z,74.81
2022-09-17T02:16:25.387Z,74.78
2022-09-17T02:19:19.357Z,74.98
2022-09-17T02:21:54.777Z,75.21
2022-09-17T02:24:32.189Z,75.35
2022-09-17T02:27:46.324Z,75.44
2022-09-17T02:30:15.304Z,75.54
2022-09-17T02:32:44.127Z,75.58
2022-09-17T02:35:14.543Z,75.60
2022-09-17T02:37:44.054Z,75.82
2022-09-17T02:40:15.613Z,75.77
2022-09-17T02:42:43.815Z,75.81
2022-09-17T02:45:24.447Z,75.90
2022-09-17T02:48:09.312Z,75.82
2022-09-17T02:50:59.296Z,75.90
2022-09-17T02:53:48.693Z,75.88
2022-09-17T02:56:18.226Z,75.98
2022-09-17T02:59:12.029Z,76.00
2022-09-17T03:01:48.080Z,75.94
2022-09-17T03:04:18.946Z,75.97
2022-09-17T03:06:48.242Z,75.91
2022-09-17T03:09:16.862Z,75.91
2022-09-17T03:11:45.082Z,75.94
2022-09-17T03:14:13.481Z,75.91
2022-09-17T03:16:41.961Z,75.90
2022-09-17T03:19:10.202Z,75.79
2022-09-17T03:21:38.716Z,75.77
2022-09-17T03:24:07.324Z,75.82
2022-09-17T03:26:35.578Z,75.64
2022-09-17T03:29:03.993Z,75.33
2022-09-17T03:31:32.685Z,75.29
2022-09-17T03:34:01.122Z,75.34
2022-09-17T03:36:29.774Z,75.26
2022-09-17T03:38:59.359Z,75.15
2022-09-17T03:41:28.199Z,75.18
2022-09-17T03:43:56.642Z,75.13
2022-09-17T03:46:25.936Z,75.10
2022-09-17T03:48:54.260Z,74.94
2022-09-17T03:51:22.743Z,74.77
2022-09-17T03:53:51.462Z,74.83
2022-09-17T03:56:20.112Z,74.89
2022-09-17T03:58:48.354Z,74.99
2022-09-17T04:01:16.854Z,75.18
2022-09-17T04:03:46.167Z,75.32
2022-09-17T04:06:14.550Z,75.38
2022-09-17T04:08:43.951Z,75.34
2022-09-17T04:11:12.328Z,75.42
2022-09-17T04:13:40.609Z,75.48
2022-09-17T04:16:09.278Z,75.56
2022-09-17T04:18:37.874Z,75.60
2022-09-17T04:21:06.609Z,75.62
2022-09-17T04:23:35.066Z,75.79
2022-09-17T04:26:04.341Z,75.95
2022-09-17T04:28:32.836Z,75.99
2022-09-17T04:31:01.288Z,76.03
2022-09-17T04:33:29.883Z,76.07
2022-09-17T04:35:58.338Z,76.06
2022-09-17T04:38:27.052Z,76.09
2022-09-17T04:40:57.436Z,76.17
2022-09-17T04:43:25.704Z,76.10
2022-09-17T04:45:54.437Z,76.03
2022-09-17T04:48:22.874Z,76.07
2022-09-17T04:50:51.647Z,76.17
2022-09-17T04:53:20.613Z,76.13
2022-09-17T04:55:49.291Z,76.11
2022-09-17T04:58:17.674Z,76.23
2022-09-17T05:00:46.720Z,76.30
2022-09-17T05:03:15.438Z,76.35
2022-09-17T05:05:43.825Z,76.22
2022-09-17T05:08:12.508Z,76.15
2022-09-17T05:10:41.294Z,76.10
2022-09-17T05:13:09.574Z,76.19
2022-09-17T05:15:38.257Z,76.10
2022-09-17T05:18:06.845Z,75.99
2022-09-17T05:20:35.261Z,75.95
2022-09-17T05:23:03.908Z,75.88
2022-09-17T05:25:32.591Z,75.83
2022-09-17T05:28:01.511Z,75.73
2022-09-17T05:30:30.599Z,75.62
2022-09-17T05:33:03.463Z,75.56
2022-09-17T05:35:32.179Z,75.56
2022-09-17T05:38:02.959Z,75.62
2022-09-17T05:40:33.394Z,75.24
2022-09-17T05:43:04.724Z,75.07
2022-09-17T05:45:35.286Z,74.82
2022-09-17T05:48:05.846Z,74.73
2022-09-17T05:50:34.111Z,74.52
2022-09-17T05:53:08.338Z,74.31
2022-09-17T05:55:36.993Z,74.25
2022-09-17T05:58:17.066Z,74.02
2022-09-17T06:00:47.326Z,73.70
2022-09-17T06:03:18.082Z,73.71
2022-09-17T06:05:58.415Z,73.70
2022-09-17T06:08:29.055Z,73.75
2022-09-17T06:11:02.137Z,73.56
2022-09-17T06:13:31.402Z,73.17
2022-09-17T06:16:01.603Z,73.29
2022-09-17T06:18:31.235Z,73.33
2022-09-17T06:21:02.679Z,73.15
2022-09-17T06:23:37.807Z,73.07
2022-09-17T06:26:07.001Z,72.86
2022-09-17T06:28:41.192Z,73.03
2022-09-17T06:31:13.360Z,73.02
2022-09-17T06:33:41.854Z,73.05
2022-09-17T06:36:14.661Z,72.95
2022-09-17T06:38:45.614Z,72.97
2022-09-17T06:41:15.153Z,72.72
2022-09-17T06:43:44.072Z,72.56
2022-09-17T06:46:12.686Z,72.53
2022-09-17T06:48:41.547Z,72.26
2022-09-17T06:51:11.635Z,72.36
2022-09-17T06:53:40.967Z,72.52
2022-09-17T06:56:10.162Z,72.60
2022-09-17T06:58:38.749Z,72.84
2022-09-17T07:01:07.714Z,73.01
2022-09-17T07:03:36.478Z,73.21
2022-09-17T07:06:09.500Z,73.30
2022-09-17T07:08:39.602Z,73.07
2022-09-17T07:11:08.730Z,73.25
2022-09-17T07:13:37.005Z,73.22
2022-09-17T07:16:06.703Z,73.22
2022-09-17T07:18:35.195Z,73.39
2022-09-17T07:21:05.739Z,73.39
2022-09-17T07:23:36.864Z,73.54
2022-09-17T07:26:08.744Z,73.61
2022-09-17T07:28:39.377Z,73.36
2022-09-17T07:31:13.709Z,73.14
2022-09-17T07:33:45.388Z,72.55
2022-09-17T07:36:17.967Z,71.65
2022-09-17T07:38:47.382Z,70.47
2022-09-17T07:41:17.657Z,69.99
2022-09-17T07:43:46.361Z,69.47
2022-09-17T07:46:17.909Z,68.58
2022-09-17T07:48:47.824Z,68.78
2022-09-17T07:51:28.509Z,68.75
2022-09-17T07:53:59.192Z,68.70
2022-09-17T07:56:28.970Z,68.14
2022-09-17T07:58:57.663Z,67.82
2022-09-17T08:01:27.414Z,67.77
2022-09-17T08:03:55.881Z,67.53
2022-09-17T08:06:26.408Z,67.52
2022-09-17T08:08:56.772Z,67.34
2022-09-17T08:11:51.626Z,67.37
2022-09-17T08:14:16.940Z,67.19
2022-09-17T08:16:48.499Z,66.81
2022-09-17T08:19:18.207Z,66.03
2022-09-17T08:21:46.729Z,65.48
2022-09-17T08:24:15.059Z,64.88
2022-09-17T08:26:43.345Z,64.95
2022-09-17T08:29:12.065Z,64.80
2022-09-17T08:31:40.708Z,63.88
2022-09-17T08:34:10.216Z,63.21
2022-09-17T08:36:38.935Z,62.83
2022-09-17T08:39:08.236Z,62.39
2022-09-17T08:41:49.686Z,62.44
2022-09-17T08:44:30.892Z,62.14
2022-09-17T08:46:59.717Z,62.28
2022-09-17T08:49:38.443Z,62.09
2022-09-17T08:52:17.396Z,62.29
2022-09-17T08:55:12.510Z,62.42
2022-09-17T08:58:18.680Z,62.34
2022-09-17T09:00:51.892Z,61.98
2022-09-17T09:03:50.354Z,61.69
2022-09-17T09:06:22.653Z,61.13
2022-09-17T09:08:59.903Z,61.43
2022-09-17T09:11:31.409Z,61.58
2022-09-17T09:14:30.452Z,61.66
2022-09-17T09:17:03.727Z,61.09
2022-09-17T09:19:40.624Z,60.92
2022-09-17T09:22:41.873Z,60.44
2022-09-17T09:25:24.239Z,59.92
2022-09-17T09:28:12.072Z,59.06
2022-09-17T09:30:51.342Z,59.19
2022-09-17T09:33:36.216Z,60.91
2022-09-17T09:36:12.221Z,62.32
2022-09-17T09:38:52.425Z,61.99
2022-09-17T09:41:30.427Z,61.33
2022-09-17T09:44:05.104Z,60.56
2022-09-17T09:47:12.623Z,60.46
2022-09-17T09:49:50.695Z,60.16
2022-09-17T09:52:50.266Z,59.97
2022-09-17T09:55:40.408Z,57.77
2022-09-17T09:58:08.732Z,57.89
2022-09-17T10:00:39.807Z,58.83
2022-09-17T10:03:40.611Z,59.88
2022-09-17T10:06:10.931Z,60.23
2022-09-17T10:08:57.596Z,60.64
2022-09-17T10:11:28.326Z,60.33
2022-09-17T10:14:22.051Z,60.27
2022-09-17T10:16:51.216Z,59.85
2022-09-17T10:19:25.294Z,60.21
2022-09-17T10:21:54.245Z,59.97
2022-09-17T10:24:32.441Z,59.30
2022-09-17T10:27:02.922Z,58.89
2022-09-17T10:29:32.208Z,57.42
2022-09-17T10:32:00.919Z,55.39
2022-09-17T10:34:31.953Z,54.53
2022-09-17T10:37:00.497Z,53.97
2022-09-17T10:39:38.704Z,54.69
2022-09-17T10:42:15.948Z,53.64
2022-09-17T10:45:23.813Z,54.04
2022-09-17T10:47:52.943Z,54.66
2022-09-17T10:50:32.225Z,55.40
2022-09-17T10:53:05.425Z,56.81
2022-09-17T10:55:38.742Z,56.27
2022-09-17T10:58:10.328Z,53.08
2022-09-17T11:00:53.830Z,53.46
2022-09-17T11:03:56.423Z,58.05
2022-09-17T11:06:35.711Z,62.90
2022-09-17T11:09:13.511Z,66.55
2022-09-17T11:11:48.475Z,67.53
2022-09-17T11:14:38.782Z,67.44
2022-09-17T11:17:25.884Z,67.48
2022-09-17T11:20:25.611Z,67.70
2022-09-17T11:23:19.032Z,68.16
2022-09-17T11:26:00.926Z,68.16
2022-09-17T11:28:36.096Z,68.03
2022-09-17T11:31:42.195Z,67.93
2022-09-17T11:34:42.966Z,68.78
2022-09-17T11:37:26.765Z,68.44
2022-09-17T11:40:12.867Z,68.34
2022-09-17T11:42:50.376Z,67.21
2022-09-17T11:45:27.584Z,66.28
2022-09-17T11:48:06.535Z,66.05
2022-09-17T11:50:48.195Z,65.47
2022-09-17T11:53:30.786Z,64.08
2022-09-17T11:56:27.591Z,62.57
2022-09-17T11:59:05.906Z,61.35
2022-09-17T12:01:52.839Z,61.44
2022-09-17T12:05:00.031Z,59.59
2022-09-17T12:07:57.828Z,55.60
2022-09-17T12:10:32.324Z,52.98
2022-09-17T12:13:17.986Z,51.42
2022-09-17T12:15:53.322Z,50.69
2022-09-17T12:18:33.404Z,49.16
2022-09-17T12:21:05.851Z,47.96
2022-09-17T12:23:49.389Z,46.59
2022-09-17T12:26:43.807Z,45.44
2022-09-17T12:29:37.122Z,45.26
2022-09-17T12:32:30.457Z,45.58
2022-09-17T12:35:07.785Z,47.08
2022-09-17T12:37:51.139Z,48.12
2022-09-17T12:40:39.868Z,48.95
2022-09-17T12:43:31.389Z,50.04
2022-09-17T12:45:59.555Z,51.73
2022-09-17T12:49:12.722Z,52.45
2022-09-17T12:51:49.377Z,52.31
2022-09-17T12:54:36.677Z,52.65
2022-09-17T12:57:29.243Z,50.91
2022-09-17T13:00:11.948Z,48.73
2022-09-17T13:03:28.616Z,46.60
2022-09-17T13:06:15.020Z,44.94
2022-09-17T13:09:05.555Z,43.32
2022-09-17T13:12:06.517Z,41.83
2022-09-17T13:15:11.905Z,41.90
2022-09-17T13:18:12.360Z,41.85
2022-09-17T13:21:02.004Z,41.51
2022-09-17T13:23:38.853Z,40.58
2022-09-17T13:26:11.466Z,40.90
2022-09-17T13:28:47.019Z,39.99
2022-09-17T13:31:34.284Z,39.59
2022-09-17T13:34:03.800Z,39.77
2022-09-17T13:36:41.643Z,39.69
2022-09-17T13:39:39.268Z,38.81
2022-09-17T13:42:19.709Z,36.52
2022-09-17T13:44:52.292Z,35.82
2022-09-17T13:47:28.737Z,36.40
2022-09-17T13:50:07.944Z,37.36
2022-09-17T13:52:42.995Z,37.67
2022-09-17T13:55:34.917Z,36.52
2022-09-17T13:58:07.333Z,36.19
2022-09-17T14:00:59.098Z,36.87
2022-09-17T14:03:48.686Z,38.67
2022-09-17T14:06:21.308Z,40.59
2022-09-17T14:08:53.681Z,43.05
2022-09-17T14:11:26.619Z,44.82
2022-09-17T14:14:04.353Z,46.83
2022-09-17T14:16:37.546Z,48.63
2022-09-17T14:19:27.391Z,49.90
2022-09-17T14:21:57.517Z,51.55
2022-09-17T14:24:32.165Z,52.76
2022-09-17T14:27:11.054Z,53.61
2022-09-17T14:30:01.672Z,54.98
2022-09-17T14:32:42.433Z,56.07
2022-09-17T14:35:38.049Z,56.88
2022-09-17T14:38:39.860Z,58.20
2022-09-17T14:41:22.196Z,59.19
2022-09-17T14:43:54.994Z,60.79
2022-09-17T14:46:28.654Z,61.62
2022-09-17T14:49:19.606Z,63.45
2022-09-17T14:51:48.292Z,64.08
2022-09-17T14:54:22.670Z,63.62
2022-09-17T14:57:01.948Z,62.29
2022-09-17T14:59:32.984Z,60.56
2022-09-17T15:02:01.404Z,58.98
2022-09-17T15:04:30.310Z,58.23
2022-09-17T15:07:10.126Z,58.12
2022-09-17T15:09:38.895Z,58.30
2022-09-17T15:12:08.066Z,58.35
2022-09-17T15:14:40.459Z,58.85
2022-09-17T15:17:15.403Z,58.55
2022-09-17T15:19:50.559Z,57.97
2022-09-17T15:22:34.104Z,57.04
2022-09-17T15:25:08.509Z,56.06
2022-09-17T15:27:43.342Z,55.19
2022-09-17T15:30:20.434Z,55.42
2022-09-17T15:32:54.716Z,55.68
2022-09-17T15:35:30.585Z,56.56
2022-09-17T15:38:23.735Z,57.59
2022-09-17T15:40:53.470Z,58.15
2022-09-17T15:43:29.589Z,59.05
2022-09-17T15:46:16.173Z,60.06
2022-09-17T15:48:44.823Z,60.28
2022-09-17T15:51:34.873Z,61.49
2022-09-17T15:54:30.691Z,61.31
2022-09-17T15:57:03.990Z,60.76
2022-09-17T15:59:34.930Z,60.70
2022-09-17T16:02:03.594Z,60.27
2022-09-17T16:04:33.785Z,59.85
2022-09-17T16:07:08.386Z,59.57
2022-09-17T16:09:50.158Z,59.47
2022-09-17T16:12:22.729Z,59.22
2022-09-17T16:14:56.838Z,58.89
2022-09-17T16:17:42.065Z,58.71
2022-09-17T16:20:23.657Z,58.78
2022-09-17T16:22:53.317Z,58.98
2022-09-17T16:25:27.102Z,59.11
2022-09-17T16:28:02.702Z,59.44
2022-09-17T16:30:31.965Z,59.99
2022-09-17T16:33:03.649Z,60.22
2022-09-17T16:35:32.207Z,60.75
2022-09-17T16:38:00.791Z,61.37
2022-09-17T16:40:29.378Z,62.08
2022-09-17T16:43:02.058Z,63.83
2022-09-17T16:45:31.713Z,64.94
2022-09-17T16:48:00.371Z,64.50
2022-09-17T16:50:29.348Z,63.90
2022-09-17T16:53:01.527Z,63.15
2022-09-17T16:55:32.850Z,62.45
2022-09-17T16:58:03.273Z,62.02
2022-09-17T17:00:31.727Z,61.78
2022-09-17T17:03:00.459Z,61.72
2022-09-17T17:05:29.142Z,61.84
2022-09-17T17:07:57.842Z,61.96
2022-09-17T17:10:26.707Z,62.04
2022-09-17T17:12:55.282Z,62.39
2022-09-17T17:15:23.969Z,62.40
2022-09-17T17:17:53.408Z,62.23
2022-09-17T17:20:21.958Z,62.26
2022-09-17T17:22:53.818Z,62.24
2022-09-17T17:25:23.923Z,62.17
2022-09-17T17:27:52.930Z,62.42
2022-09-17T17:30:22.183Z,62.64
2022-09-17T17:32:52.722Z,62.90
2022-09-17T17:35:21.353Z,63.08
2022-09-17T17:37:50.191Z,63.18
2022-09-17T17:40:18.938Z,63.51
2022-09-17T17:42:52.725Z,63.74
2022-09-17T17:45:21.799Z,63.95
2022-09-17T17:47:50.201Z,64.02
2022-09-17T17:50:18.883Z,64.16
2022-09-17T17:52:48.953Z,64.14
2022-09-17T17:55:17.281Z,64.30
2022-09-17T17:57:45.964Z,64.39
2022-09-17T18:00:16.705Z,64.54
2022-09-17T18:02:45.296Z,64.61
2022-09-17T18:05:13.864Z,64.78
2022-09-17T18:07:42.346Z,65.06
2022-09-17T18:10:11.041Z,65.30
2022-09-17T18:12:39.846Z,65.29
2022-09-17T18:15:08.813Z,65.39
2022-09-17T18:17:37.396Z,65.52
2022-09-17T18:20:06.455Z,65.49
2022-09-17T18:22:35.385Z,65.46
2022-09-17T18:25:04.067Z,65.58
2022-09-17T18:27:32.652Z,65.89
2022-09-17T18:30:01.547Z,66.09
2022-09-17T18:32:30.126Z,66.00
2022-09-17T18:34:58.609Z,66.19
2022-09-17T18:37:29.131Z,66.22
2022-09-17T18:39:59.080Z,66.19
2022-09-17T18:42:29.373Z,66.35
2022-09-17T18:44:57.754Z,66.47
2022-09-17T18:47:26.123Z,66.49
2022-09-17T18:49:54.524Z,66.43
2022-09-17T18:52:22.897Z,66.58
2022-09-17T18:54:51.471Z,66.59
2022-09-17T18:57:19.748Z,66.77
2022-09-17T18:59:48.643Z,66.87
2022-09-17T19:02:17.108Z,66.88
2022-09-17T19:04:45.651Z,66.96
2022-09-17T19:07:14.389Z,67.13
2022-09-17T19:09:42.869Z,67.04
2022-09-17T19:12:11.247Z,66.97
2022-09-17T19:14:39.626Z,67.02
2022-09-17T19:17:09.679Z,67.23
2022-09-17T19:19:38.543Z,67.28
2022-09-17T19:22:08.086Z,67.39
2022-09-17T19:24:36.960Z,67.70
2022-09-17T19:27:05.680Z,67.72
2022-09-17T19:29:34.093Z,67.76
2022-09-17T19:32:02.663Z,67.84
2022-09-17T19:34:31.468Z,68.08
2022-09-17T19:37:00.253Z,68.20
2022-09-17T19:39:29.145Z,68.11
2022-09-17T19:41:57.802Z,68.21
2022-09-17T19:44:28.627Z,68.24
2022-09-17T19:46:57.524Z,68.29
2022-09-17T19:49:26.150Z,68.38
2022-09-17T19:51:54.741Z,68.40
2022-09-17T19:54:23.039Z,68.42
2022-09-17T19:56:51.582Z,68.59
2022-09-17T19:59:19.840Z,68.45
2022-09-17T20:01:49.683Z,68.40
2022-09-17T20:04:18.488Z,68.41
2022-09-17T20:06:46.841Z,68.37
2022-09-17T20:09:15.117Z,68.40
2022-09-17T20:11:43.479Z,68.38
2022-09-17T20:14:12.668Z,68.52
2022-09-17T20:16:41.481Z,68.85
2022-09-17T20:19:14.362Z,68.92
2022-09-17T20:21:42.953Z,69.30
2022-09-17T20:24:11.836Z,69.28
2022-09-17T20:26:40.878Z,69.32
2022-09-17T20:39:33.031Z,70.71
2022-09-17T20:42:03.099Z,70.60
2022-09-17T20:44:31.428Z,70.58
2022-09-17T20:47:01.797Z,70.58
2022-09-17T20:49:30.333Z,70.63
2022-09-17T20:51:59.328Z,70.72
2022-09-17T20:54:28.114Z,70.87
2022-09-17T20:56:56.540Z,70.95
2022-09-17T20:59:36.648Z,71.04
2022-09-17T21:02:05.064Z,71.09
2022-09-17T21:04:33.644Z,71.22
2022-09-17T21:07:02.263Z,71.36
2022-09-17T21:09:30.672Z,71.13
2022-09-17T21:11:59.051Z,71.08
2022-09-17T21:14:27.534Z,70.97
2022-09-17T21:16:55.914Z,71.04
2022-09-17T21:19:25.624Z,71.18
2022-09-17T21:21:54.921Z,71.22
2022-09-17T21:24:24.078Z,71.53
2022-09-17T21:26:54.343Z,71.62
2022-09-17T21:29:22.686Z,71.92
2022-09-17T21:31:51.745Z,72.10
2022-09-17T21:34:20.194Z,72.14
2022-09-17T21:36:50.005Z,72.29
2022-09-17T21:39:18.531Z,72.38
2022-09-17T21:41:48.268Z,72.28
2022-09-17T21:44:16.669Z,72.36
2022-09-17T21:46:45.215Z,72.44
2022-09-17T21:49:13.896Z,72.48
2022-09-17T21:51:42.756Z,72.60
2022-09-17T21:54:13.661Z,72.64
2022-09-17T21:56:42.561Z,72.40
2022-09-17T21:59:13.459Z,72.29
2022-09-17T22:01:47.334Z,72.42
2022-09-17T22:04:19.064Z,72.42
2022-09-17T22:06:50.417Z,72.33
2022-09-17T22:09:24.628Z,72.40
2022-09-17T22:11:53.426Z,72.07
2022-09-17T22:14:25.618Z,72.03
2022-09-17T22:16:57.038Z,72.12
2022-09-17T22:19:26.543Z,72.29
2022-09-17T22:21:56.424Z,72.37
2022-09-17T22:24:26.003Z,72.60
2022-09-17T22:26:58.185Z,72.51
2022-09-17T22:29:31.734Z,72.65
2022-09-17T22:32:00.358Z,72.63
2022-09-17T22:34:29.981Z,72.71
2022-09-17T22:36:59.935Z,72.89
2022-09-17T22:39:28.312Z,73.09
2022-09-17T22:41:57.100Z,73.07
2022-09-17T22:44:25.376Z,73.31
2022-09-17T22:46:53.840Z,73.52
2022-09-17T22:49:22.253Z,73.73
2022-09-17T22:51:50.714Z,73.95
2022-09-17T22:54:19.125Z,74.03
2022-09-17T22:56:48.652Z,74.29
2022-09-17T22:59:18.391Z,74.62
2022-09-17T23:01:48.029Z,74.80
2022-09-17T23:04:16.505Z,74.81
2022-09-17T23:06:44.858Z,75.02
2022-09-17T23:09:14.528Z,75.04
2022-09-17T23:11:43.221Z,75.21
2022-09-17T23:14:13.347Z,75.23
2022-09-17T23:16:44.866Z,75.32
2022-09-17T23:19:16.966Z,75.38
2022-09-17T23:21:45.732Z,75.40
2022-09-17T23:24:22.420Z,75.51
2022-09-17T23:26:51.088Z,75.53
2022-09-17T23:29:19.844Z,75.24
2022-09-17T23:31:48.598Z,75.49
2022-09-17T23:34:17.111Z,75.47
2022-09-17T23:36:45.592Z,75.39
2022-09-17T23:39:14.029Z,75.30
2022-09-17T23:41:45.013Z,75.28
2022-09-17T23:44:16.267Z,75.37
2022-09-17T23:46:46.333Z,75.32
2022-09-17T23:49:16.035Z,75.39
2022-09-17T23:51:45.266Z,75.32
2022-09-17T23:54:14.040Z,75.33
2022-09-17T23:56:42.547Z,75.37
2022-09-17T23:59:11.314Z,75.32
